Terminal Aerodrome Forecast
Issued by NWS La Crosse, WI

Home | Current Version | Previous Version | Text Only | Print | Product List | Glossary On
Versions: 1 2 3 4 5 6 7 8 9 10 11 12 13 14 15 16 17 18 19 20 21 22 23 24 25 26 27
000
FTUS43 KARX 140521
TAFRST
TAF
KRST 140521Z 1406/1506 34008KT P6SM SCT035
     FM141000 31008KT P6SM BKN030
     FM141200 29006KT P6SM BKN020
     FM141900 29011KT P6SM BKN015=

USA.gov is the U.S. government's official web portal to all federal, state and local government web resources and services.